LLBG/TLV METAR and TAF weather

Enter ICAO airport designator
Station Type Date Time Source
LLBG METAR 2019/02/23 00:20 UTC NOAA

LLBG 230020Z VRB02KT CAVOK 09/07 Q1017 NOSIG


Station Type Date Time Source
LLBG Decoded METAR 2019/02/23 00:20 UTC NOAA

Ben-Gurion International Airport, Israel (LLBG) 32-00N 034-54E 49M
Feb 22, 2019 - 07:20 PM EST / 2019.02.23 0020 UTC
Wind: Variable at 2 MPH (2 KT):0
Visibility: greater than 7 mile(s):0
Temperature: 48 F (9 C)
Dew Point: 44 F (7 C)
Relative Humidity: 87%
Pressure (altimeter): 30.03 in. Hg (1017 hPa)
ob: LLBG 230020Z VRB02KT CAVOK 09/07 Q1017 NOSIG
cycle: 0

Station Type Date Time Source
LLBG TAF 2019/02/22 18:09 UTC NOAA

TAF TAF LLBG 221703Z 2218/2318 15004KT 9999 SCT030
BECMG 2307/2309 23007KT
BECMG 2312/2314 32007KT FEW030 TX18/2312Z TN09/2304Z


Example: see airport list